Delhi, Louisiana
Current Conditions -  °F | °C
As of 1:53 PM on Wednesday 17 Dec 2014 (Local Time) from KTVR Reporting Station
Clear Clear  
Wind Chill: 54°   Ceiling: Unl
Heat Index: 54°   Visibility: 10mi
Dew Point: 37°   Wind: 5mph
Humidity: 53%   Direction: 360°N
Pressure: 30.25"   Gusts: NA
Location:  32.46°N, 91.49°W
Report Text: KTVR 171953Z AUTO 36004KT 10SM CLR 12/03 A3025 RMK AO2 SLP251 T01220028
Loading
Personal Weather Stations






























Interactive Weather Map New forecast layout! Learn more

10-Day Weather Forecast

Advertisements
Track Severe Weather on mobile